Time;durP1;ratioP1;P1;durP2;ratioP2;P2;SDS_P1;SDS_P2;PMS_P1;PMS_P2;Temp;Humidity;BMP_temperature;BMP_pressure;BME280_temperature;BME280_humidity;BME280_pressure;Samples;Min_cycle;Max_cycle;Signal;HPM_P1;HPM_P2
2021/10/10 00:02:10;;;;;;;10.27;9.27;;;11.70;68.10;;;;;;5054245;28;20466;-76
2021/10/10 00:04:37;;;;;;;11.87;9.43;;;11.60;68.40;;;;;;5054293;28;20441;-76
2021/10/10 00:07:04;;;;;;;11.83;8.93;;;11.70;69.10;;;;;;5054290;28;20441;-75
2021/10/10 00:09:32;;;;;;;10.27;8.80;;;11.60;68.80;;;;;;5053838;28;20511;-76
2021/10/10 00:11:58;;;;;;;11.90;10.10;;;11.60;69.00;;;;;;5053770;28;20426;-76
2021/10/10 00:14:25;;;;;;;10.80;9.80;;;11.60;69.30;;;;;;5054069;28;20446;-75
2021/10/10 00:16:52;;;;;;;10.03;9.03;;;11.60;69.40;;;;;;5053733;28;20452;-76
2021/10/10 00:19:19;;;;;;;12.53;10.70;;;11.60;69.80;;;;;;5054013;28;20518;-76
2021/10/10 00:21:46;;;;;;;11.80;9.93;;;11.60;70.60;;;;;;5053754;28;20448;-76
2021/10/10 00:24:12;;;;;;;13.47;9.97;;;11.60;71.60;;;;;;5054037;28;20426;-76
2021/10/10 00:26:40;;;;;;;11.60;10.40;;;11.60;72.00;;;;;;5053861;28;20536;-76
2021/10/10 00:29:07;;;;;;;12.70;10.90;;;11.60;71.90;;;;;;5053794;28;20480;-76
2021/10/10 00:31:34;;;;;;;12.10;10.87;;;11.70;71.80;;;;;;5054686;28;20426;-76
2021/10/10 00:34:00;;;;;;;13.97;10.63;;;11.70;72.00;;;;;;5054736;28;20462;-76
2021/10/10 00:36:27;;;;;;;11.40;10.23;;;11.60;71.50;;;;;;5054132;28;20441;-76
2021/10/10 00:38:54;;;;;;;10.63;9.07;;;11.60;70.80;;;;;;5053880;28;20448;-76
2021/10/10 00:41:21;;;;;;;13.50;9.57;;;11.60;70.40;;;;;;5053774;28;20433;-76
2021/10/10 00:43:49;;;;;;;10.83;9.50;;;11.50;70.20;;;;;;5053078;28;20998;-76
2021/10/10 00:46:15;;;;;;;14.10;9.60;;;11.50;70.10;;;;;;5053705;28;20446;-76
2021/10/10 00:48:42;;;;;;;11.23;9.40;;;11.50;70.30;;;;;;5053473;28;20481;-76
2021/10/10 00:51:09;;;;;;;9.50;8.60;;;11.50;70.10;;;;;;5053496;28;20518;-76
2021/10/10 00:53:38;;;;;;;9.70;8.67;;;11.40;69.70;;;;;;5053386;28;20464;-76
2021/10/10 00:56:06;;;;;;;9.50;7.43;;;11.30;68.80;;;;;;5053495;28;20446;-76
2021/10/10 00:58:36;;;;;;;11.50;8.03;;;11.10;67.60;;;;;;5053504;28;20786;-76
2021/10/10 01:01:04;;;;;;;9.80;8.20;;;11.00;67.10;;;;;;5053461;28;20477;-76
2021/10/10 01:03:31;;;;;;;10.23;9.13;;;10.80;67.50;;;;;;5053298;28;20492;-76
2021/10/10 01:05:58;;;;;;;9.07;8.17;;;10.80;68.50;;;;;;5053104;28;20963;-76
2021/10/10 01:08:25;;;;;;;10.90;8.77;;;10.70;69.40;;;;;;5053211;28;20480;-76
2021/10/10 01:10:51;;;;;;;9.73;8.83;;;10.70;69.90;;;;;;5053306;28;20450;-76
2021/10/10 01:13:19;;;;;;;13.87;8.93;;;10.60;69.70;;;;;;5052968;28;20465;-76
2021/10/10 01:15:48;;;;;;;11.13;9.30;;;10.50;69.60;;;;;;5053011;28;20612;-76
2021/10/10 01:18:22;;;;;;;13.53;9.30;;;10.50;70.00;;;;;;5053248;28;20452;-76
2021/10/10 01:20:52;;;;;;;11.43;8.67;;;10.50;70.10;;;;;;5053297;28;20441;-76
2021/10/10 01:23:19;;;;;;;12.00;10.00;;;10.50;70.10;;;;;;5052786;28;20484;-76
2021/10/10 01:25:46;;;;;;;12.83;9.90;;;10.50;69.90;;;;;;5052873;28;20446;-76
2021/10/10 01:28:13;;;;;;;12.27;9.00;;;10.40;69.50;;;;;;5053098;28;20477;-76
2021/10/10 01:30:40;;;;;;;10.60;8.70;;;10.50;70.00;;;;;;5053685;28;20446;-75
2021/10/10 01:33:08;;;;;;;10.40;9.13;;;10.50;70.20;;;;;;5053010;28;20461;-76
2021/10/10 01:35:34;;;;;;;9.70;8.80;;;10.50;70.40;;;;;;5053090;28;20495;-76
2021/10/10 01:38:03;;;;;;;11.77;9.77;;;10.50;70.40;;;;;;5052828;28;20433;-76
2021/10/10 01:40:30;;;;;;;9.87;8.43;;;10.40;70.30;;;;;;5053020;28;20441;-76
2021/10/10 01:42:57;;;;;;;11.03;9.53;;;10.40;70.20;;;;;;5052930;28;20476;-76
2021/10/10 01:45:25;;;;;;;9.63;8.63;;;10.40;70.60;;;;;;5052962;28;20449;-76
2021/10/10 01:47:51;;;;;;;10.03;8.50;;;10.40;70.40;;;;;;5053377;28;20454;-76
2021/10/10 01:50:18;;;;;;;12.47;8.83;;;10.40;69.90;;;;;;5053020;28;20429;-76
2021/10/10 01:52:49;;;;;;;11.40;8.70;;;10.30;69.50;;;;;;5052960;28;20492;-75
2021/10/10 01:55:18;;;;;;;9.53;8.30;;;10.20;69.40;;;;;;5053009;28;20441;-76
2021/10/10 01:57:45;;;;;;;9.30;7.87;;;10.10;70.00;;;;;;5056583;28;20441;-75
2021/10/10 02:00:12;;;;;;;9.70;8.60;;;10.00;69.30;;;;;;5057192;28;20441;-75
2021/10/10 02:02:39;;;;;;;13.00;9.37;;;10.00;69.50;;;;;;5056517;28;20495;-76
2021/10/10 02:05:07;;;;;;;11.60;8.70;;;10.00;69.60;;;;;;5056607;28;20456;-76
2021/10/10 02:07:34;;;;;;;12.73;9.60;;;9.90;70.40;;;;;;5056200;28;20495;-76
2021/10/10 02:10:01;;;;;;;9.47;8.50;;;9.90;70.70;;;;;;5056541;28;20477;-76
2021/10/10 02:12:29;;;;;;;10.30;8.77;;;9.90;70.80;;;;;;5056381;28;20457;-76
2021/10/10 02:14:55;;;;;;;9.13;8.20;;;10.00;69.90;;;;;;5056368;28;20449;-76
2021/10/10 02:17:22;;;;;;;12.00;8.57;;;10.00;70.00;;;;;;5056105;28;20448;-76
2021/10/10 02:19:49;;;;;;;10.93;9.37;;;9.90;71.10;;;;;;5056274;28;20452;-76
2021/10/10 02:22:15;;;;;;;13.57;9.30;;;9.90;71.20;;;;;;5055917;28;20485;-76
2021/10/10 02:24:42;;;;;;;9.27;8.03;;;9.90;70.90;;;;;;5056205;28;20456;-76
2021/10/10 02:27:09;;;;;;;9.70;8.57;;;9.90;71.50;;;;;;5056119;28;20848;-76
2021/10/10 02:29:37;;;;;;;8.93;7.77;;;9.90;71.30;;;;;;5056033;28;20481;-76
2021/10/10 02:32:04;;;;;;;9.63;8.50;;;9.80;71.40;;;;;;5055686;28;20463;-76
2021/10/10 02:34:31;;;;;;;11.47;9.50;;;9.80;71.70;;;;;;5055993;28;20449;-76
2021/10/10 02:36:57;;;;;;;14.03;9.13;;;9.80;72.10;;;;;;5055600;28;20453;-76
2021/10/10 02:39:24;;;;;;;10.70;8.90;;;9.80;72.30;;;;;;5055896;28;20442;-76
2021/10/10 02:41:51;;;;;;;10.80;8.23;;;9.90;72.20;;;;;;5055750;28;20441;-76
2021/10/10 02:44:17;;;;;;;10.40;8.90;;;9.90;72.10;;;;;;5055847;28;20457;-76
2021/10/10 02:46:45;;;;;;;9.43;8.47;;;9.90;72.00;;;;;;5055723;28;20489;-76
2021/10/10 02:49:12;;;;;;;10.37;9.30;;;9.90;72.30;;;;;;5055609;28;20480;-76
2021/10/10 02:51:39;;;;;;;13.10;8.87;;;9.90;72.80;;;;;;5055687;28;20441;-76
2021/10/10 02:54:06;;;;;;;13.97;9.70;;;9.90;73.60;;;;;;5055545;28;20476;-76
2021/10/10 02:56:32;;;;;;;11.60;10.40;;;9.90;74.20;;;;;;5055526;28;20453;-76
2021/10/10 02:58:59;;;;;;;13.03;10.60;;;10.00;73.40;;;;;;5055271;28;20919;-76
2021/10/10 03:01:26;;;;;;;13.87;10.73;;;9.90;74.90;;;;;;5055458;28;20442;-76
2021/10/10 03:03:54;;;;;;;12.97;10.67;;;10.00;73.60;;;;;;5055372;28;20833;-76
2021/10/10 03:06:21;;;;;;;16.70;11.43;;;10.00;73.80;;;;;;5055440;28;20449;-76
2021/10/10 03:08:47;;;;;;;13.47;11.40;;;10.10;74.30;;;;;;5055120;28;20477;-75
2021/10/10 03:11:14;;;;;;;15.13;11.70;;;10.10;74.70;;;;;;5054986;28;20944;-76
2021/10/10 03:13:41;;;;;;;13.73;11.37;;;10.10;74.80;;;;;;5056070;28;20500;-76
2021/10/10 03:16:07;;;;;;;11.60;8.40;;;10.10;75.10;;;;;;5055232;28;20506;-76
2021/10/10 03:18:34;;;;;;;10.33;8.20;;;10.10;73.10;;;;;;5055263;28;20817;-76
2021/10/10 03:21:02;;;;;;;9.30;8.40;;;10.10;71.50;;;;;;5055146;28;20450;-76
2021/10/10 03:23:30;;;;;;;12.50;8.70;;;10.00;71.00;;;;;;5054679;28;20478;-76
2021/10/10 03:25:56;;;;;;;14.97;8.90;;;10.00;70.20;;;;;;5055079;28;20457;-76
2021/10/10 03:28:23;;;;;;;10.60;9.50;;;9.90;70.90;;;;;;5054904;28;20452;-76
2021/10/10 03:30:50;;;;;;;12.57;8.33;;;9.80;71.40;;;;;;5054997;28;20442;-76
2021/10/10 03:33:17;;;;;;;21.47;9.50;;;9.70;71.70;;;;;;5055280;28;20468;-76
2021/10/10 03:35:43;;;;;;;12.00;9.23;;;9.70;71.90;;;;;;5055210;28;20447;-76
2021/10/10 03:38:11;;;;;;;12.80;9.30;;;9.70;71.70;;;;;;5054525;28;20426;-76
2021/10/10 03:40:38;;;;;;;12.07;8.93;;;9.60;71.30;;;;;;5054748;28;20437;-76
2021/10/10 03:43:05;;;;;;;10.23;9.07;;;9.50;71.50;;;;;;5054627;28;20495;-76
2021/10/10 03:45:32;;;;;;;8.60;7.77;;;9.40;71.60;;;;;;5054368;28;20444;-76
2021/10/10 03:47:58;;;;;;;9.17;8.17;;;9.30;71.80;;;;;;5054569;28;20472;-76
2021/10/10 03:50:25;;;;;;;9.97;8.97;;;9.20;72.20;;;;;;5054518;28;20462;-76
2021/10/10 03:52:53;;;;;;;10.23;9.03;;;9.20;72.70;;;;;;5054167;28;20474;-76
2021/10/10 03:55:29;;;;;;;9.17;8.27;;;9.20;72.60;;;;;;5054391;28;20445;-76
2021/10/10 03:57:57;;;;;;;11.77;8.83;;;9.10;72.20;;;;;;5054190;28;20899;-76
2021/10/10 04:00:24;;;;;;;10.27;9.17;;;9.10;72.50;;;;;;5054342;28;20524;-76
2021/10/10 04:02:51;;;;;;;11.70;8.37;;;9.10;73.50;;;;;;5053973;28;20981;-76
2021/10/10 04:05:23;;;;;;;9.67;8.67;;;9.10;72.90;;;;;;5054256;28;20444;-76
2021/10/10 04:07:50;;;;;;;10.03;8.77;;;9.10;73.00;;;;;;5055089;28;20430;-76
2021/10/10 04:10:17;;;;;;;12.47;9.30;;;9.10;73.00;;;;;;5054112;28;20866;-76
2021/10/10 04:12:45;;;;;;;10.37;8.73;;;9.10;73.20;;;;;;5053784;28;20994;-76
2021/10/10 04:15:13;;;;;;;10.60;9.03;;;9.20;73.60;;;;;;5054639;28;20442;-76
2021/10/10 04:17:41;;;;;;;10.63;9.53;;;9.20;73.80;;;;;;5054029;28;20448;-76
2021/10/10 04:20:09;;;;;;;10.30;9.20;;;9.20;73.60;;;;;;5053503;28;20437;-76
2021/10/10 04:22:36;;;;;;;10.70;9.27;;;9.30;73.90;;;;;;5053615;28;20488;-76
2021/10/10 04:25:04;;;;;;;10.27;9.10;;;9.30;74.00;;;;;;5053915;28;20441;-76
2021/10/10 04:27:32;;;;;;;12.03;9.50;;;9.20;73.60;;;;;;5053894;28;20454;-75
2021/10/10 04:30:00;;;;;;;9.23;8.30;;;9.20;73.50;;;;;;5053438;28;20915;-76
2021/10/10 04:32:27;;;;;;;11.37;7.87;;;9.10;73.00;;;;;;5053718;28;20465;-76
2021/10/10 04:34:54;;;;;;;10.47;8.53;;;9.00;73.00;;;;;;5053764;28;20827;-76
2021/10/10 04:37:20;;;;;;;9.73;8.63;;;9.00;73.20;;;;;;5053708;28;20499;-76
2021/10/10 04:39:47;;;;;;;11.17;7.63;;;9.00;73.10;;;;;;5053703;28;20449;-76
2021/10/10 04:42:14;;;;;;;10.70;9.60;;;9.00;73.30;;;;;;5053278;28;20990;-76
2021/10/10 04:44:41;;;;;;;10.73;9.53;;;9.00;73.10;;;;;;5053626;28;20807;-76
2021/10/10 04:47:09;;;;;;;13.63;10.60;;;9.00;73.10;;;;;;5053577;28;20449;-75
2021/10/10 04:49:36;;;;;;;10.83;9.43;;;9.00;73.60;;;;;;5053490;28;20893;-75
2021/10/10 04:52:04;;;;;;;11.80;8.73;;;9.00;74.40;;;;;;5053095;28;20449;-76
2021/10/10 04:54:31;;;;;;;12.03;10.03;;;9.00;74.40;;;;;;5053488;28;20452;-76
2021/10/10 04:56:58;;;;;;;10.30;9.27;;;8.90;74.10;;;;;;5053136;28;20458;-76
2021/10/10 04:59:24;;;;;;;11.57;10.07;;;8.90;74.40;;;;;;5053456;28;20442;-76
2021/10/10 05:01:51;;;;;;;13.93;10.70;;;9.00;74.90;;;;;;5053332;28;20441;-76
2021/10/10 05:04:19;;;;;;;10.90;9.60;;;9.00;74.90;;;;;;5053391;28;20468;-75
2021/10/10 05:06:46;;;;;;;10.27;9.03;;;8.90;74.60;;;;;;5053324;28;20446;-76
2021/10/10 05:09:13;;;;;;;11.57;9.60;;;9.00;75.00;;;;;;5053238;28;20488;-76
2021/10/10 05:11:39;;;;;;;13.20;10.70;;;9.00;75.10;;;;;;5053348;28;20438;-76
2021/10/10 05:14:06;;;;;;;12.93;11.63;;;8.90;75.10;;;;;;5053210;28;20469;-76
2021/10/10 05:16:33;;;;;;;13.20;10.60;;;8.90;75.30;;;;;;5053237;28;20448;-75
2021/10/10 05:18:59;;;;;;;13.40;11.70;;;8.90;75.30;;;;;;5052898;28;20784;-76
2021/10/10 05:21:27;;;;;;;12.43;11.13;;;8.90;75.40;;;;;;5053247;28;20480;-76
2021/10/10 05:23:54;;;;;;;13.30;11.07;;;8.90;75.70;;;;;;5052753;28;20474;-75
2021/10/10 05:26:21;;;;;;;13.97;11.67;;;9.00;76.20;;;;;;5052901;28;20434;-76
2021/10/10 05:28:47;;;;;;;12.63;11.33;;;9.00;76.30;;;;;;5052820;28;20989;-76
2021/10/10 05:31:14;;;;;;;15.50;10.30;;;8.90;76.00;;;;;;5054263;28;20500;-76
2021/10/10 05:33:41;;;;;;;12.60;10.70;;;8.90;76.00;;;;;;5057072;28;20468;-76
2021/10/10 05:36:07;;;;;;;13.00;11.70;;;8.90;76.10;;;;;;5057084;28;20456;-76
2021/10/10 05:38:35;;;;;;;16.00;12.50;;;8.90;76.30;;;;;;5057024;28;20453;-76
2021/10/10 05:41:02;;;;;;;15.57;11.20;;;9.00;76.40;;;;;;5057053;28;20444;-76
2021/10/10 05:43:29;;;;;;;14.80;12.00;;;8.90;76.30;;;;;;5056912;28;20465;-76
2021/10/10 05:45:57;;;;;;;16.00;10.80;;;8.90;76.20;;;;;;5056820;28;20473;-76
2021/10/10 05:48:23;;;;;;;14.77;11.57;;;8.90;76.30;;;;;;5056588;28;20959;-76
2021/10/10 05:50:50;;;;;;;15.83;12.63;;;8.90;76.20;;;;;;5056710;28;20484;-76
2021/10/10 05:53:17;;;;;;;14.60;11.73;;;8.90;76.30;;;;;;5056334;28;21043;-76
2021/10/10 05:55:45;;;;;;;16.20;12.50;;;8.90;76.50;;;;;;5056679;28;20449;-76
2021/10/10 05:58:17;;;;;;;13.47;12.03;;;8.90;76.50;;;;;;5056375;28;20888;-76
2021/10/10 06:00:44;;;;;;;13.87;11.77;;;8.90;76.60;;;;;;5057229;28;20508;-76
2021/10/10 06:03:10;;;;;;;14.60;12.90;;;8.90;76.60;;;;;;5056548;28;20495;-76
2021/10/10 06:05:37;;;;;;;17.67;12.47;;;8.90;77.30;;;;;;5056593;28;20426;-76
2021/10/10 06:08:04;;;;;;;15.07;12.97;;;9.00;76.80;;;;;;5055399;28;20910;-76
2021/10/10 06:10:32;;;;;;;14.70;12.27;;;9.00;76.70;;;;;;5056113;28;20872;-76
2021/10/10 06:13:01;;;;;;;14.17;11.97;;;9.10;76.80;;;;;;5056322;28;20470;-76
2021/10/10 06:15:28;;;;;;;14.57;12.87;;;9.10;76.80;;;;;;5056370;28;20468;-76
2021/10/10 06:17:55;;;;;;;17.03;14.30;;;9.10;76.80;;;;;;5056367;28;20484;-76
2021/10/10 06:20:22;;;;;;;13.80;11.83;;;9.10;77.60;;;;;;5056270;28;20488;-76
2021/10/10 06:22:48;;;;;;;15.00;13.03;;;9.10;77.00;;;;;;5055870;28;20473;-76
2021/10/10 06:25:15;;;;;;;18.23;13.87;;;9.10;77.30;;;;;;5056170;28;20861;-76
2021/10/10 06:27:42;;;;;;;20.23;13.57;;;9.10;78.00;;;;;;5055790;28;20849;-76
2021/10/10 06:30:11;;;;;;;14.17;12.60;;;9.10;78.20;;;;;;5056005;28;20478;-76
2021/10/10 06:32:38;;;;;;;16.27;13.03;;;9.20;78.80;;;;;;5055647;28;20864;-76
2021/10/10 06:35:06;;;;;;;16.90;14.60;;;9.20;79.00;;;;;;5055987;28;20452;-76
2021/10/10 06:37:33;;;;;;;15.27;13.63;;;9.20;79.30;;;;;;5055683;28;20446;-76
2021/10/10 06:40:00;;;;;;;20.70;15.30;;;9.30;79.70;;;;;;5055786;28;20441;-76
2021/10/10 06:42:27;;;;;;;16.70;14.43;;;9.30;80.30;;;;;;5055290;28;20469;-76
2021/10/10 06:44:53;;;;;;;18.63;15.03;;;9.40;80.60;;;;;;5055820;28;20445;-76
2021/10/10 06:47:21;;;;;;;18.67;16.70;;;9.40;81.40;;;;;;5055738;28;20455;-76
2021/10/10 06:49:48;;;;;;;17.93;15.07;;;9.50;82.30;;;;;;5055333;28;20468;-76
2021/10/10 06:52:15;;;;;;;21.13;15.90;;;9.50;82.80;;;;;;5055284;28;20816;-76
2021/10/10 06:54:42;;;;;;;20.17;16.87;;;9.60;83.10;;;;;;5055614;28;20452;-76
2021/10/10 06:57:09;;;;;;;22.30;17.07;;;9.60;83.30;;;;;;5055125;28;20931;-76
2021/10/10 06:59:36;;;;;;;19.23;15.57;;;9.70;83.60;;;;;;5055284;28;20453;-76
2021/10/10 07:02:03;;;;;;;21.97;17.03;;;9.70;83.80;;;;;;5054963;28;20965;-76
2021/10/10 07:04:31;;;;;;;17.60;15.70;;;9.80;84.00;;;;;;5055530;28;20825;-76
2021/10/10 07:06:57;;;;;;;19.70;15.80;;;9.90;84.10;;;;;;5055284;28;20446;-76
2021/10/10 07:09:24;;;;;;;19.33;16.90;;;9.90;84.10;;;;;;5055047;28;20785;-76
2021/10/10 07:11:51;;;;;;;18.27;15.30;;;10.00;83.00;;;;;;5055290;28;20469;-76
2021/10/10 07:14:17;;;;;;;17.17;14.90;;;10.00;82.70;;;;;;5055358;28;20436;-76
2021/10/10 07:16:44;;;;;;;17.80;14.70;;;10.10;82.80;;;;;;5055217;28;20484;-76
2021/10/10 07:19:11;;;;;;;19.33;14.93;;;10.10;82.80;;;;;;5055160;28;20445;-76
2021/10/10 07:21:43;;;;;;;19.77;15.30;;;10.10;82.60;;;;;;5054609;28;20915;-76
2021/10/10 07:26:54;;;;;;;18.53;14.70;;;10.20;82.50;;;;;;5055131;28;20805;-76
2021/10/10 07:29:21;;;;;;;19.20;15.40;;;10.30;82.40;;;;;;5054218;28;20891;-76
2021/10/10 07:31:48;;;;;;;17.03;13.60;;;10.30;82.30;;;;;;5054821;28;20484;-76
2021/10/10 07:34:15;;;;;;;17.83;15.00;;;10.30;82.40;;;;;;5054852;28;20466;-76
2021/10/10 07:36:43;;;;;;;22.47;14.30;;;10.40;82.30;;;;;;5054711;28;20449;-76
2021/10/10 07:39:09;;;;;;;18.87;13.67;;;10.40;82.10;;;;;;5054491;28;20445;-76
2021/10/10 07:41:40;;;;;;;17.70;14.70;;;10.40;82.10;;;;;;5054747;28;20441;-76
2021/10/10 07:44:08;;;;;;;15.90;13.43;;;10.40;82.10;;;;;;5054352;28;20994;-76
2021/10/10 07:46:37;;;;;;;20.80;14.90;;;10.40;82.30;;;;;;5054361;28;20956;-76
2021/10/10 07:49:04;;;;;;;14.83;13.33;;;10.50;82.20;;;;;;5054618;28;20531;-76
2021/10/10 07:51:31;;;;;;;18.50;14.60;;;10.50;82.10;;;;;;5054471;28;20477;-76
2021/10/10 07:53:59;;;;;;;18.40;13.57;;;10.50;82.30;;;;;;5053426;28;20469;-76
2021/10/10 07:56:26;;;;;;;17.03;13.63;;;10.50;82.30;;;;;;5054485;28;20790;-76
2021/10/10 07:58:52;;;;;;;16.83;13.73;;;10.60;83.10;;;;;;5054101;28;20445;-76
2021/10/10 08:01:20;;;;;;;17.47;13.63;;;10.70;83.10;;;;;;5054366;28;20445;-76
2021/10/10 08:03:46;;;;;;;17.67;13.87;;;10.80;83.40;;;;;;5054300;28;20552;-76
2021/10/10 08:06:13;;;;;;;16.00;13.37;;;10.80;83.50;;;;;;5054171;28;20445;-76
2021/10/10 08:08:40;;;;;;;17.47;13.23;;;10.90;82.90;;;;;;5054010;28;20449;-76
2021/10/10 08:11:08;;;;;;;19.23;13.67;;;10.90;82.60;;;;;;5053543;28;20998;-76
2021/10/10 08:13:35;;;;;;;16.70;14.90;;;10.90;81.70;;;;;;5053683;28;20462;-75
2021/10/10 08:16:02;;;;;;;17.40;13.50;;;11.00;81.80;;;;;;5053792;28;20446;-75
2021/10/10 08:18:28;;;;;;;14.57;13.07;;;11.10;82.50;;;;;;5053390;28;20453;-75
2021/10/10 08:20:55;;;;;;;17.60;12.83;;;11.10;82.00;;;;;;5053699;28;20499;-75
2021/10/10 08:23:22;;;;;;;13.57;12.17;;;11.20;81.70;;;;;;5053516;28;20596;-75
2021/10/10 08:25:49;;;;;;;16.17;14.20;;;11.30;81.20;;;;;;5053633;28;20467;-76
2021/10/10 08:28:17;;;;;;;15.27;13.77;;;11.30;80.90;;;;;;5053768;28;20445;-75
2021/10/10 08:30:44;;;;;;;16.07;13.53;;;11.40;80.80;;;;;;5053426;28;21025;-75
2021/10/10 08:33:10;;;;;;;17.03;12.90;;;11.50;80.90;;;;;;5053756;28;20515;-75
2021/10/10 08:35:37;;;;;;;17.20;14.20;;;11.60;81.20;;;;;;5053671;28;20449;-76
2021/10/10 08:38:04;;;;;;;16.10;12.97;;;11.70;80.80;;;;;;5054157;28;20453;-75
2021/10/10 08:40:30;;;;;;;13.17;11.77;;;11.80;80.50;;;;;;5053923;28;20437;-76
2021/10/10 08:43:01;;;;;;;14.30;12.30;;;11.80;79.90;;;;;;5053480;28;20465;-75
2021/10/10 08:45:30;;;;;;;16.03;13.30;;;12.00;80.00;;;;;;5053639;28;20477;-76
2021/10/10 08:47:57;;;;;;;14.60;12.47;;;12.10;79.40;;;;;;5053475;28;20449;-76
2021/10/10 08:50:25;;;;;;;15.70;13.80;;;12.20;78.80;;;;;;5053329;28;20843;-76
2021/10/10 08:52:55;;;;;;;19.87;13.10;;;12.30;78.00;;;;;;5053160;28;20840;-72
2021/10/10 08:55:22;;;;;;;16.47;13.77;;;12.50;76.70;;;;;;5053554;28;20620;-73
2021/10/10 08:57:51;;;;;;;15.70;14.10;;;12.60;77.10;;;;;;5053511;28;20433;-72
2021/10/10 09:00:20;;;;;;;17.30;15.10;;;12.80;77.90;;;;;;5054024;28;20430;-73
2021/10/10 09:02:50;;;;;;;17.87;15.03;;;12.90;77.20;;;;;;5053336;28;20469;-73
2021/10/10 09:05:18;;;;;;;16.87;14.57;;;13.00;77.20;;;;;;5052941;28;20438;-73
2021/10/10 09:07:45;;;;;;;16.33;14.30;;;13.10;77.30;;;;;;5053258;28;20441;-73
2021/10/10 09:10:25;;;;;;;18.27;15.37;;;13.20;77.00;;;;;;5053057;28;20452;-73
2021/10/10 09:12:52;;;;;;;19.93;14.43;;;13.20;76.30;;;;;;5053249;28;20469;-73
2021/10/10 09:15:21;;;;;;;18.93;15.10;;;13.30;75.80;;;;;;5053334;28;20434;-73
2021/10/10 09:18:00;;;;;;;21.17;16.93;;;13.40;75.50;;;;;;5053322;28;20446;-72
2021/10/10 09:20:29;;;;;;;19.57;16.20;;;13.50;75.70;;;;;;5052940;28;20425;-73
2021/10/10 09:22:55;;;;;;;17.50;15.57;;;13.70;75.80;;;;;;5052869;28;20476;-73
2021/10/10 09:25:22;;;;;;;20.90;15.40;;;13.80;75.40;;;;;;5053442;28;20441;-71
2021/10/10 09:27:49;;;;;;;22.17;16.80;;;13.90;74.50;;;;;;5053435;28;20453;-73
2021/10/10 09:30:19;;;;;;;20.40;17.00;;;14.10;74.70;;;;;;5053226;28;20452;-73
2021/10/10 09:32:46;;;;;;;17.67;15.30;;;14.30;75.00;;;;;;5053284;28;20523;-73
2021/10/10 09:35:25;;;;;;;15.27;13.20;;;14.50;74.20;;;;;;5052912;28;20524;-73
2021/10/10 09:38:06;;;;;;;18.13;14.60;;;14.70;73.00;;;;;;5052803;28;20437;-73
2021/10/10 09:40:37;;;;;;;15.77;13.97;;;14.90;74.60;;;;;;5053072;28;20437;-73
2021/10/10 09:43:05;;;;;;;16.23;13.43;;;15.00;73.20;;;;;;5053203;28;20477;-73
2021/10/10 09:45:39;;;;;;;14.50;13.00;;;15.20;72.10;;;;;;5053245;28;20445;-73
2021/10/10 09:48:06;;;;;;;13.27;11.13;;;15.40;70.80;;;;;;5053128;28;20495;-73
2021/10/10 09:50:36;;;;;;;16.30;13.30;;;15.60;69.80;;;;;;5053135;28;20442;-73
2021/10/10 09:53:05;;;;;;;17.53;11.50;;;15.80;67.80;;;;;;5053078;28;20473;-73
2021/10/10 09:55:33;;;;;;;14.30;12.80;;;15.80;67.50;;;;;;5053095;28;20442;-73
2021/10/10 09:58:00;;;;;;;15.73;12.80;;;15.80;67.80;;;;;;5053123;28;20445;-74
2021/10/10 10:00:29;;;;;;;17.00;13.50;;;15.80;65.80;;;;;;5052903;28;20899;-73
2021/10/10 10:03:02;;;;;;;15.90;11.80;;;15.90;66.90;;;;;;5052812;28;20469;-74
2021/10/10 10:05:30;;;;;;;14.23;12.57;;;16.20;64.80;;;;;;5052974;28;20433;-74
2021/10/10 10:07:59;;;;;;;15.20;12.50;;;16.60;64.10;;;;;;5052753;28;20958;-74
2021/10/10 10:10:28;;;;;;;14.50;13.00;;;17.00;64.30;;;;;;5052591;28;20453;-74
2021/10/10 10:12:56;;;;;;;16.03;11.70;;;17.20;62.60;;;;;;5052710;28;20465;-71
2021/10/10 10:16:00;;;;;;;15.23;12.73;;;17.60;60.90;;;;;;5052770;28;20448;-73
2021/10/10 10:18:29;;;;;;;14.70;12.30;;;18.20;59.50;;;;;;5055942;28;20500;-73
2021/10/10 10:23:45;;;;;;;12.90;11.70;;;19.00;57.10;;;;;;5055119;28;20998;-72
2021/10/10 10:26:14;;;;;;;13.10;11.50;;;19.60;55.60;;;;;;5056438;28;20425;-72
2021/10/10 10:28:41;;;;;;;13.00;11.70;;;20.10;54.00;;;;;;5055697;28;20545;-72
2021/10/10 10:31:08;;;;;;;12.63;11.30;;;20.60;52.80;;;;;;5056043;28;20481;-72
2021/10/10 10:33:35;;;;;;;14.10;12.27;;;21.00;50.30;;;;;;5055787;28;20971;-72
2021/10/10 10:36:02;;;;;;;13.93;11.47;;;20.70;49.80;;;;;;5056008;28;20449;-74
2021/10/10 10:38:46;;;;;;;14.57;13.03;;;20.60;49.50;;;;;;5055850;28;20441;-71
2021/10/10 10:41:48;;;;;;;16.60;14.57;;;20.70;49.90;;;;;;5055936;28;20433;-74
2021/10/10 10:44:42;;;;;;;15.80;13.47;;;20.50;50.70;;;;;;5055390;28;20469;-74
2021/10/10 10:47:10;;;;;;;15.87;14.00;;;20.10;51.00;;;;;;5055604;28;20453;-75
2021/10/10 10:50:01;;;;;;;13.93;12.53;;;20.00;52.20;;;;;;5055637;28;20449;-75
2021/10/10 10:52:30;;;;;;;15.37;13.77;;;20.00;52.70;;;;;;5055964;28;20481;-75
2021/10/10 10:54:59;;;;;;;14.27;11.87;;;20.00;54.90;;;;;;5055622;28;20448;-75
2021/10/10 10:57:28;;;;;;;18.53;13.67;;;20.20;52.40;;;;;;5055734;28;20491;-73
2021/10/10 11:00:04;;;;;;;14.07;12.57;;;20.30;51.90;;;;;;5055215;28;20931;-74
2021/10/10 11:03:03;;;;;;;15.27;12.67;;;20.50;52.00;;;;;;5055521;28;20461;-74
2021/10/10 11:05:41;;;;;;;14.93;12.70;;;21.20;52.00;;;;;;5055534;28;20430;-74
2021/10/10 11:08:10;;;;;;;12.17;10.87;;;22.00;49.10;;;;;;5055377;28;20437;-73
2021/10/10 11:10:39;;;;;;;15.33;11.87;;;22.80;47.60;;;;;;5055324;28;20430;-73
2021/10/10 11:13:24;;;;;;;13.50;12.37;;;23.60;45.60;;;;;;5055232;28;20509;-73
2021/10/10 11:15:51;;;;;;;13.17;11.67;;;24.40;43.20;;;;;;5055344;28;20452;-74
2021/10/10 11:18:18;;;;;;;14.50;13.07;;;24.90;42.40;;;;;;5055330;28;20464;-74
2021/10/10 11:20:50;;;;;;;15.03;13.40;;;25.20;41.10;;;;;;5055233;28;20434;-74
2021/10/10 11:23:16;;;;;;;14.93;13.30;;;25.30;39.80;;;;;;5054833;28;20477;-74
2021/10/10 11:25:45;;;;;;;19.97;17.90;;;25.10;38.50;;;;;;5054978;28;20491;-74
2021/10/10 11:28:12;;;;;;;19.60;17.17;;;24.70;38.90;;;;;;5054588;28;20450;-74
2021/10/10 11:30:39;;;;;;;19.77;17.83;;;24.10;40.00;;;;;;5055063;28;20529;-74
2021/10/10 11:33:06;;;;;;;18.70;16.67;;;24.00;41.30;;;;;;5054816;28;20941;-74
2021/10/10 11:35:34;;;;;;;17.60;15.80;;;24.10;41.30;;;;;;5054887;28;20450;-74
2021/10/10 11:38:07;;;;;;;23.90;17.60;;;24.20;41.10;;;;;;5054905;28;20447;-74
2021/10/10 11:40:34;;;;;;;18.77;14.73;;;24.20;40.90;;;;;;5054837;28;20434;-74
2021/10/10 11:43:03;;;;;;;18.73;15.93;;;24.00;41.50;;;;;;5054745;28;20526;-74
2021/10/10 11:45:30;;;;;;;19.43;15.13;;;23.70;42.70;;;;;;5054840;28;20442;-73
2021/10/10 11:47:57;;;;;;;16.27;14.57;;;23.60;42.70;;;;;;5054842;28;20445;-74
2021/10/10 11:50:24;;;;;;;17.60;15.77;;;23.70;43.50;;;;;;5054739;28;20458;-74
2021/10/10 11:52:56;;;;;;;19.10;16.80;;;23.70;43.30;;;;;;5054391;28;20508;-73
2021/10/10 11:55:27;;;;;;;18.00;16.10;;;24.00;43.60;;;;;;5054279;28;20802;-74
2021/10/10 11:57:55;;;;;;;20.60;16.23;;;24.60;41.60;;;;;;5054156;28;20523;-74
2021/10/10 12:00:26;;;;;;;21.27;17.50;;;25.30;41.00;;;;;;5053966;28;20907;-73
2021/10/10 12:02:53;;;;;;;18.70;16.67;;;26.10;38.70;;;;;;5054695;28;20462;-74
2021/10/10 12:05:21;;;;;;;18.97;17.20;;;26.70;38.70;;;;;;5053972;28;20951;-74
2021/10/10 12:07:49;;;;;;;19.90;17.90;;;27.10;36.40;;;;;;5054000;28;20437;-74
2021/10/10 12:10:18;;;;;;;19.67;17.80;;;27.70;36.40;;;;;;5053952;28;20449;-74
2021/10/10 12:12:45;;;;;;;19.33;17.40;;;28.30;35.70;;;;;;5053920;28;20485;-74
2021/10/10 12:15:12;;;;;;;19.93;17.97;;;28.90;34.70;;;;;;5054990;28;20778;-73
2021/10/10 12:17:43;;;;;;;18.00;16.37;;;29.50;33.90;;;;;;5053983;28;20926;-74
2021/10/10 12:20:26;;;;;;;20.27;16.53;;;30.10;31.70;;;;;;5054239;28;20476;-74
2021/10/10 12:22:56;;;;;;;18.40;16.40;;;30.70;30.60;;;;;;5052482;28;20505;-74
2021/10/10 12:25:28;;;;;;;19.17;17.33;;;31.10;29.30;;;;;;5053954;28;20441;-75
2021/10/10 12:27:57;;;;;;;25.30;22.63;;;31.60;30.60;;;;;;5053822;28;20425;-74
2021/10/10 12:30:26;;;;;;;20.80;18.90;;;32.00;28.80;;;;;;5053894;28;20437;-74
2021/10/10 12:32:54;;;;;;;20.43;18.47;;;32.10;28.00;;;;;;5053697;28;20480;-75
2021/10/10 12:35:21;;;;;;;23.10;21.00;;;32.40;28.80;;;;;;5053808;28;20453;-76
2021/10/10 12:37:52;;;;;;;22.63;20.60;;;32.60;26.70;;;;;;5053763;28;20447;-76
2021/10/10 12:40:31;;;;;;;32.10;29.27;;;32.30;26.70;;;;;;5052975;28;20455;-75
2021/10/10 12:42:58;;;;;;;37.37;33.63;;;31.80;27.00;;;;;;5053532;28;20477;-75
2021/10/10 12:45:29;;;;;;;44.90;41.20;;;30.90;28.00;;;;;;5053323;28;20453;-74
2021/10/10 12:48:06;;;;;;;23.47;21.17;;;30.60;29.40;;;;;;5053083;28;20430;-74